createdAt,value
2023-02-05T00:01:34.121Z,981.64
2023-02-05T00:06:35.613Z,981.62
2023-02-05T00:11:37.472Z,981.61
2023-02-05T00:16:39.286Z,981.61
2023-02-05T00:21:40.893Z,981.56
2023-02-05T00:26:42.525Z,981.54
2023-02-05T00:31:44.166Z,981.51
2023-02-05T00:36:45.612Z,981.62
2023-02-05T00:41:47.758Z,981.66
2023-02-05T00:46:49.139Z,981.69
2023-02-05T00:51:51.433Z,981.74
2023-02-05T00:56:52.558Z,981.78
2023-02-05T01:01:54.129Z,981.74
2023-02-05T01:06:55.374Z,981.73
2023-02-05T01:11:57.480Z,981.74
2023-02-05T01:16:59.402Z,981.69
2023-02-05T01:22:01.288Z,981.61
2023-02-05T01:27:03.362Z,981.57
2023-02-05T01:32:05.024Z,981.52
2023-02-05T01:37:06.444Z,981.53
2023-02-05T01:42:07.776Z,981.47
2023-02-05T01:47:09.506Z,981.51
2023-02-05T01:52:11.257Z,981.51
2023-02-05T01:57:13.094Z,981.54
2023-02-05T02:02:15.016Z,981.54
2023-02-05T02:07:17.137Z,981.52
2023-02-05T02:12:18.563Z,981.41
2023-02-05T02:17:20.773Z,981.34
2023-02-05T02:22:22.349Z,981.37
2023-02-05T02:27:23.736Z,981.35
2023-02-05T02:32:25.091Z,981.21
2023-02-05T02:37:27.001Z,981.19
2023-02-05T02:42:28.490Z,981.18
2023-02-05T02:47:30.213Z,981.13
2023-02-05T02:52:31.590Z,981.18
2023-02-05T02:57:33.089Z,981.2
2023-02-05T03:02:34.471Z,981.13
2023-02-05T03:07:35.862Z,981.09
2023-02-05T03:12:37.636Z,981.06
2023-02-05T03:17:39.773Z,981
2023-02-05T03:22:41.833Z,980.87
2023-02-05T03:27:43.599Z,980.85
2023-02-05T03:32:45.251Z,980.75
2023-02-05T03:37:47.134Z,980.69
2023-02-05T03:37:53.319Z,980.72
2023-02-05T03:42:54.902Z,980.66
2023-02-05T03:47:56.349Z,980.64
2023-02-05T03:53:04.157Z,980.66
2023-02-05T03:57:59.774Z,980.8
2023-02-05T04:03:01.207Z,980.89
2023-02-05T04:08:02.710Z,980.85
2023-02-05T04:13:04.642Z,980.82
2023-02-05T04:18:06.462Z,980.64
2023-02-05T04:23:08.430Z,980.65
2023-02-05T04:28:10.334Z,980.64
2023-02-05T04:33:11.440Z,980.6
2023-02-05T04:38:13.484Z,980.49
2023-02-05T04:43:15.521Z,980.4
2023-02-05T04:48:16.942Z,980.43
2023-02-05T04:53:18.566Z,980.44
2023-02-05T04:58:20.403Z,980.45
2023-02-05T05:03:25.436Z,980.45
2023-02-05T05:08:23.623Z,980.44
2023-02-05T05:13:25.459Z,980.4
2023-02-05T05:18:26.817Z,980.37
2023-02-05T05:23:28.676Z,980.34
2023-02-05T05:28:30.406Z,980.38
2023-02-05T05:33:32.389Z,980.37
2023-02-05T05:38:33.834Z,980.33
2023-02-05T05:43:35.453Z,980.36
2023-02-05T05:48:37.338Z,980.39
2023-02-05T05:53:38.788Z,980.37
2023-02-05T05:58:40.036Z,980.3
2023-02-05T06:03:42.000Z,980.38
2023-02-05T06:08:43.556Z,980.35
2023-02-05T06:13:45.685Z,980.38
2023-02-05T06:18:47.100Z,980.39
2023-02-05T06:23:48.530Z,980.42
2023-02-05T06:28:50.815Z,980.5
2023-02-05T06:33:52.260Z,980.57
2023-02-05T06:38:54.131Z,980.58
2023-02-05T06:43:56.272Z,980.56
2023-02-05T06:48:57.666Z,980.54
2023-02-05T06:53:59.561Z,980.61
2023-02-05T06:59:01.369Z,980.69
2023-02-05T07:04:02.471Z,980.67
2023-02-05T07:09:06.010Z,980.69
2023-02-05T07:14:04.956Z,980.67
2023-02-05T07:19:06.615Z,980.67
2023-02-05T07:24:08.583Z,980.52
2023-02-05T07:29:09.896Z,980.47
2023-02-05T07:34:11.759Z,980.46
2023-02-05T07:39:13.619Z,980.45
2023-02-05T07:44:14.995Z,980.53
2023-02-05T07:49:16.696Z,980.53
2023-02-05T07:54:18.736Z,980.57
2023-02-05T07:59:20.350Z,980.6
2023-02-05T08:04:22.541Z,980.54
2023-02-05T08:09:24.490Z,980.67
2023-02-05T08:14:26.593Z,980.63
2023-02-05T08:19:28.559Z,980.64
2023-02-05T08:24:30.026Z,980.57
2023-02-05T08:29:31.461Z,980.45
2023-02-05T08:34:33.251Z,980.31
2023-02-05T08:39:34.845Z,980.28
2023-02-05T08:44:36.069Z,980.18
2023-02-05T08:49:38.349Z,980.03
2023-02-05T08:54:39.603Z,979.88
2023-02-05T08:59:41.524Z,979.73
2023-02-05T09:04:43.479Z,979.7
2023-02-05T09:09:44.821Z,979.73
2023-02-05T09:14:46.256Z,979.61
2023-02-05T09:19:48.412Z,979.61
2023-02-05T09:24:50.221Z,979.6
2023-02-05T09:29:51.606Z,979.56
2023-02-05T09:34:52.852Z,979.51
2023-02-05T09:44:56.937Z,979.48
2023-02-05T09:49:58.353Z,979.39
2023-02-05T09:54:59.709Z,979.32
2023-02-05T10:00:01.061Z,979.22
2023-02-05T10:05:03.127Z,979.06
2023-02-05T10:10:04.988Z,978.99
2023-02-05T10:25:10.653Z,978.81
2023-02-05T10:35:14.300Z,978.68
2023-02-05T10:50:19.317Z,978.47
2023-02-05T10:55:20.807Z,978.44
2023-02-05T11:05:24.650Z,978.38
2023-02-05T11:20:29.531Z,978.28
2023-02-05T11:30:51.013Z,978.3
2023-02-05T11:35:34.844Z,978.28
2023-02-05T11:40:36.750Z,978.39
2023-02-05T11:45:38.648Z,978.32
2023-02-05T11:50:40.033Z,978.32
2023-02-05T11:55:41.303Z,978.34
2023-02-05T12:00:43.063Z,978.38
2023-02-05T12:05:44.501Z,978.35
2023-02-05T12:10:45.686Z,978.34
2023-02-05T12:15:47.341Z,978.24
2023-02-05T12:20:49.049Z,978.2
2023-02-05T12:25:50.340Z,978.15
2023-02-05T12:30:52.552Z,978.07
2023-02-05T12:35:53.786Z,978.1
2023-02-05T12:40:55.561Z,978.07
2023-02-05T12:45:57.631Z,977.98
2023-02-05T12:50:59.038Z,977.96
2023-02-05T12:56:01.104Z,978.01
2023-02-05T13:01:02.402Z,977.97
2023-02-05T13:06:03.925Z,977.92
2023-02-05T13:11:05.405Z,977.96
2023-02-05T13:16:06.788Z,977.93
2023-02-05T13:21:08.643Z,977.92
2023-02-05T13:26:09.999Z,977.92
2023-02-05T13:31:11.847Z,977.97
2023-02-05T13:36:13.408Z,977.85
2023-02-05T13:41:15.582Z,977.86
2023-02-05T13:46:17.495Z,977.87
2023-02-05T13:51:19.160Z,977.82
2023-02-05T13:56:20.647Z,977.8
2023-02-05T14:01:22.188Z,977.88
2023-02-05T14:06:24.049Z,977.83
2023-02-05T14:11:25.996Z,977.84
2023-02-05T14:16:28.066Z,977.81
2023-02-05T14:21:29.916Z,977.82
2023-02-05T14:26:31.380Z,977.84
2023-02-05T14:31:32.898Z,977.82
2023-02-05T14:36:34.213Z,977.81
2023-02-05T14:41:35.530Z,977.78
2023-02-05T14:46:36.912Z,977.72
2023-02-05T14:51:38.079Z,977.7
2023-02-05T14:56:39.624Z,977.61
2023-02-05T15:01:41.837Z,977.59
2023-02-05T15:06:43.435Z,977.66
2023-02-05T15:11:44.791Z,977.67
2023-02-05T15:16:46.085Z,977.72
2023-02-05T15:21:47.489Z,977.72
2023-02-05T15:26:49.474Z,977.79
2023-02-05T15:31:50.744Z,977.85
2023-02-05T15:36:52.565Z,977.87
2023-02-05T15:41:54.525Z,977.96
2023-02-05T15:46:56.392Z,977.94
2023-02-05T15:51:58.347Z,977.86
2023-02-05T15:57:00.222Z,978
2023-02-05T16:02:01.788Z,977.98
2023-02-05T16:07:03.318Z,977.96
2023-02-05T16:12:05.035Z,978.04
2023-02-05T16:17:07.207Z,978.04
2023-02-05T16:22:08.803Z,978.1
2023-02-05T16:27:10.926Z,978.16
2023-02-05T16:32:13.026Z,978.16
2023-02-05T16:37:14.181Z,978.09
2023-02-05T16:42:15.939Z,978.15
2023-02-05T16:47:17.265Z,978.13
2023-02-05T16:52:18.860Z,978.19
2023-02-05T16:57:21.149Z,978.22
2023-02-05T17:02:22.677Z,978.22
2023-02-05T17:07:24.544Z,978.19
2023-02-05T17:12:26.643Z,978.25
2023-02-05T17:17:27.769Z,978.19
2023-02-05T17:22:29.173Z,978.22
2023-02-05T17:27:32.905Z,978.24
2023-02-05T17:32:31.827Z,978.28
2023-02-05T17:37:33.504Z,978.28
2023-02-05T17:42:34.770Z,978.16
2023-02-05T17:47:36.821Z,978.25
2023-02-05T17:52:38.592Z,978.26
2023-02-05T17:57:40.645Z,978.2
2023-02-05T18:02:42.653Z,978.13
2023-02-05T18:07:43.850Z,978.01
2023-02-05T18:12:46.020Z,978.04
2023-02-05T18:17:47.990Z,978.15
2023-02-05T18:22:49.843Z,978.17
2023-02-05T18:27:51.515Z,978.24
2023-02-05T18:32:53.204Z,978.24
2023-02-05T18:37:54.922Z,978.2
2023-02-05T18:42:57.036Z,978.22
2023-02-05T18:47:58.364Z,978.23
2023-02-05T18:52:59.513Z,978.23
2023-02-05T18:58:01.142Z,978.17
2023-02-05T19:03:03.277Z,978.11
2023-02-05T19:08:06.485Z,978.21
2023-02-05T19:13:05.863Z,978.33
2023-02-05T19:18:07.648Z,978.47
2023-02-05T19:23:09.501Z,978.46
2023-02-05T19:28:10.955Z,978.51
2023-02-05T19:33:13.042Z,978.49
2023-02-05T19:38:14.488Z,978.58
2023-02-05T19:43:16.159Z,978.6
2023-02-05T19:48:18.057Z,978.59
2023-02-05T19:53:19.710Z,978.64
2023-02-05T19:58:21.423Z,978.7
2023-02-05T20:03:22.702Z,978.81
2023-02-05T20:08:24.121Z,978.78
2023-02-05T20:13:25.797Z,978.84
2023-02-05T20:18:27.534Z,978.91
2023-02-05T20:23:29.037Z,978.92
2023-02-05T20:28:37.339Z,978.92
2023-02-05T20:33:38.655Z,979
2023-02-05T20:38:40.442Z,979.09
2023-02-05T20:43:42.285Z,979.15
2023-02-05T20:48:44.275Z,979.21
2023-02-05T20:53:46.347Z,979.31
2023-02-05T20:58:48.309Z,979.41
2023-02-05T21:03:49.503Z,979.48
2023-02-05T21:08:51.432Z,979.59
2023-02-05T21:13:53.568Z,979.76
2023-02-05T21:18:55.157Z,979.93
2023-02-05T21:23:57.219Z,979.98
2023-02-05T21:28:58.520Z,980
2023-02-05T21:34:00.436Z,980.13
2023-02-05T21:39:02.276Z,980.09
2023-02-05T21:44:04.322Z,980.15
2023-02-05T21:49:05.870Z,980.16
2023-02-05T21:54:07.455Z,980.12
2023-02-05T21:59:08.729Z,980.17
2023-02-05T22:04:10.831Z,980.22
2023-02-05T22:09:12.685Z,980.19
2023-02-05T22:14:14.666Z,980.28
2023-02-05T22:19:16.003Z,980.32
2023-02-05T22:24:17.294Z,980.38
2023-02-05T22:29:18.780Z,980.44
2023-02-05T22:34:20.268Z,980.51
2023-02-05T22:39:22.282Z,980.53
2023-02-05T22:44:23.611Z,980.62
2023-02-05T22:49:25.728Z,980.59
2023-02-05T22:54:26.967Z,980.63
2023-02-05T22:59:29.111Z,980.67
2023-02-05T23:14:34.184Z,980.6
2023-02-05T23:19:35.337Z,980.64
2023-02-05T23:24:36.763Z,980.73
2023-02-05T23:29:38.271Z,980.75
2023-02-05T23:34:40.219Z,980.83
2023-02-05T23:39:41.627Z,980.89
2023-02-05T23:44:43.020Z,980.93
2023-02-05T23:49:44.464Z,981.04
2023-02-05T23:54:46.643Z,981.09
2023-02-05T23:59:48.028Z,981.01
